Time;durP1;ratioP1;P1;durP2;ratioP2;P2;SDS_P1;SDS_P2;PMS_P1;PMS_P2;Temp;Humidity;BMP_temperature;BMP_pressure;BME280_temperature;BME280_humidity;BME280_pressure;Samples;Min_cycle;Max_cycle;Signal;HPM_P1;HPM_P2
2021/04/29 00:03:34;;;;;;;4.70;2.00;;;13.70;99.90;;;;;;6703079;88;20836;-77
2021/04/29 00:13:36;;;;;;;3.50;1.65;;;13.70;99.90;;;;;;6717231;88;20683;-78
2021/04/29 00:23:37;;;;;;;5.05;1.83;;;13.60;99.90;;;;;;6704106;88;20629;-78
2021/04/29 00:33:37;;;;;;;3.17;1.60;;;13.60;99.90;;;;;;6697015;88;20208;-77
2021/04/29 00:43:38;;;;;;;3.17;1.73;;;13.60;99.90;;;;;;6707029;88;20215;-78
2021/04/29 00:53:40;;;;;;;4.68;1.52;;;13.60;99.90;;;;;;6707140;88;20194;-78
2021/04/29 01:03:58;;;;;;;6.03;1.95;;;13.70;99.90;;;;;;6706769;88;20190;-77
2021/04/29 01:14:03;;;;;;;3.15;1.58;;;13.70;99.90;;;;;;6705873;88;20206;-77
2021/04/29 01:24:15;;;;;;;4.17;1.57;;;13.70;99.90;;;;;;6703436;88;20206;-77
2021/04/29 01:34:17;;;;;;;3.55;1.60;;;13.90;99.00;;;;;;6703782;88;20681;-77
2021/04/29 01:44:20;;;;;;;3.78;1.98;;;13.90;98.80;;;;;;6711255;88;20217;-77
2021/04/29 01:54:22;;;;;;;4.25;1.60;;;13.90;98.80;;;;;;6707202;88;20712;-77
2021/04/29 02:04:22;;;;;;;3.65;1.77;;;13.90;98.60;;;;;;6711226;88;20193;-77
2021/04/29 02:14:42;;;;;;;3.95;1.73;;;13.90;98.50;;;;;;6703046;88;20215;-77
2021/04/29 02:24:46;;;;;;;3.80;1.90;;;13.80;99.20;;;;;;6702506;88;20219;-77
2021/04/29 02:34:47;;;;;;;3.72;2.05;;;13.80;99.20;;;;;;6695927;88;20214;-77
2021/04/29 02:44:47;;;;;;;3.40;2.10;;;13.50;99.90;;;;;;6711430;88;20206;-76
2021/04/29 02:54:48;;;;;;;5.28;2.80;;;13.40;99.90;;;;;;6703242;88;20537;-77
2021/04/29 03:04:49;;;;;;;7.20;2.47;;;13.30;99.90;;;;;;6701314;88;20261;-77
2021/04/29 03:14:49;;;;;;;4.47;2.55;;;13.30;99.90;;;;;;6701714;88;20676;-77
2021/04/29 03:24:50;;;;;;;5.70;2.90;;;13.20;99.90;;;;;;6700598;88;20264;-77
2021/04/29 03:34:51;;;;;;;6.53;3.03;;;13.20;99.90;;;;;;6701118;88;20522;-76
2021/04/29 03:44:52;;;;;;;7.95;3.15;;;13.20;99.90;;;;;;6701917;88;20198;-76
2021/04/29 03:54:52;;;;;;;7.25;3.10;;;13.10;99.90;;;;;;6701262;88;20670;-77
2021/04/29 04:04:53;;;;;;;6.68;3.55;;;13.00;99.90;;;;;;6702702;88;20661;-77
2021/04/29 04:14:53;;;;;;;10.40;4.60;;;12.90;99.90;;;;;;6703472;88;20191;-77
2021/04/29 04:24:54;;;;;;;7.30;4.28;;;12.80;99.90;;;;;;6670162;78;20569;-76
2021/04/29 04:34:54;;;;;;;9.05;4.18;;;12.70;99.90;;;;;;6641133;89;20363;-76
2021/04/29 04:44:55;;;;;;;6.80;3.67;;;12.70;99.90;;;;;;6637828;89;20204;-76
2021/04/29 04:54:55;;;;;;;9.55;4.28;;;12.50;99.90;;;;;;6635089;89;20202;-75
2021/04/29 05:04:58;;;;;;;8.07;4.18;;;12.40;99.90;;;;;;6639878;89;20352;-75
2021/04/29 05:14:59;;;;;;;11.38;5.20;;;12.20;99.90;;;;;;6640169;89;20633;-75
2021/04/29 05:25:00;;;;;;;11.15;5.20;;;12.40;99.90;;;;;;6636256;89;20201;-76
2021/04/29 05:35:00;;;;;;;9.38;5.70;;;12.20;99.90;;;;;;6631374;89;20228;-76
2021/04/29 05:45:02;;;;;;;11.88;6.43;;;12.30;99.90;;;;;;6638251;89;20309;-75
2021/04/29 05:55:03;;;;;;;12.40;7.70;;;12.50;99.90;;;;;;6652339;89;20237;-75
2021/04/29 06:05:04;;;;;;;13.05;8.75;;;12.40;99.90;;;;;;6636829;88;20221;-75
2021/04/29 06:15:05;;;;;;;15.10;8.98;;;12.60;99.90;;;;;;6640560;89;20617;-76
2021/04/29 06:25:07;;;;;;;14.57;7.80;;;12.50;99.90;;;;;;6637133;89;20212;-77
2021/04/29 06:35:09;;;;;;;12.80;7.30;;;12.50;99.90;;;;;;6633688;89;20234;-75
2021/04/29 06:45:10;;;;;;;14.20;8.02;;;12.70;99.90;;;;;;6629638;88;20220;-74
2021/04/29 06:55:12;;;;;;;14.48;7.87;;;13.10;99.90;;;;;;6639161;88;20950;-75
2021/04/29 07:05:13;;;;;;;18.00;10.75;;;13.20;99.90;;;;;;6642337;88;20252;-74
2021/04/29 07:15:14;;;;;;;21.98;11.15;;;13.00;99.90;;;;;;6636675;89;20196;-75
2021/04/29 07:25:15;;;;;;;20.10;11.90;;;12.90;99.90;;;;;;6634564;89;20212;-75
2021/04/29 07:35:15;;;;;;;20.30;12.43;;;13.70;99.90;;;;;;6635384;88;20192;-76
2021/04/29 07:45:16;;;;;;;19.60;11.20;;;14.70;99.90;;;;;;6638755;89;20205;-75
2021/04/29 07:55:17;;;;;;;16.75;10.50;;;14.40;99.80;;;;;;6637035;89;21057;-74
2021/04/29 08:05:18;;;;;;;17.67;10.63;;;14.50;98.60;;;;;;6636920;89;20188;-77
2021/04/29 08:15:19;;;;;;;15.57;10.10;;;15.70;96.50;;;;;;6633752;89;20228;-77
2021/04/29 08:25:19;;;;;;;15.48;9.90;;;16.50;95.30;;;;;;6638561;88;20219;-77
2021/04/29 08:35:21;;;;;;;15.07;8.32;;;15.90;94.40;;;;;;6634236;89;20205;-78
2021/04/29 08:45:23;;;;;;;12.18;7.35;;;17.30;90.50;;;;;;6631875;89;20384;-78
2021/04/29 08:55:26;;;;;;;12.85;6.80;;;17.90;85.50;;;;;;6634639;88;20709;-77
2021/04/29 09:05:30;;;;;;;9.98;6.57;;;16.40;83.70;;;;;;6636926;89;20599;-78
2021/04/29 09:15:36;;;;;;;11.10;6.65;;;15.90;85.10;;;;;;6643061;89;20325;-77
2021/04/29 09:25:37;;;;;;;12.23;7.15;;;16.00;83.80;;;;;;6639787;89;20846;-76
2021/04/29 09:35:40;;;;;;;11.55;6.70;;;14.00;98.50;;;;;;6633739;89;20193;-76
2021/04/29 09:45:41;;;;;;;16.77;9.18;;;14.20;98.80;;;;;;6633432;89;20637;-77
2021/04/29 09:55:45;;;;;;;10.65;6.60;;;15.20;94.70;;;;;;6634722;89;20330;-77
2021/04/29 10:05:50;;;;;;;10.10;5.70;;;15.20;91.50;;;;;;6648214;89;20252;-77
2021/04/29 10:15:51;;;;;;;;;;;14.80;91.70;;;;;;6650813;89;20264;-77
2021/04/29 10:25:54;;;;;;;9.73;5.87;;;14.70;91.10;;;;;;6653820;88;20065;-76
2021/04/29 10:35:59;;;;;;;7.85;5.45;;;15.90;89.90;;;;;;6659585;88;21112;-76
2021/04/29 10:46:04;;;;;;;12.20;5.37;;;16.40;84.80;;;;;;6644856;88;20300;-76
2021/04/29 10:56:14;;;;;;;8.05;4.25;;;14.90;89.20;;;;;;6640661;89;20557;-77
2021/04/29 11:06:30;;;;;;;6.47;3.70;;;14.50;87.40;;;;;;6646166;88;20218;-77
2021/04/29 11:16:45;;;;;;;8.73;2.87;;;14.20;89.40;;;;;;6641196;89;20207;-77
2021/04/29 11:26:45;;;;;;;23.27;10.07;;;16.20;83.40;;;;;;6650413;88;20252;-77
2021/04/29 11:36:57;;;;;;;26.77;12.55;;;16.30;84.20;;;;;;6651740;89;20324;-77
2021/04/29 11:47:13;;;;;;;21.35;11.48;;;9.90;99.90;;;;;;6654181;89;20176;-77
2021/04/29 11:57:14;;;;;;;29.75;14.93;;;9.80;99.90;;;;;;6653857;89;20202;-77
2021/04/29 12:07:15;;;;;;;19.17;10.70;;;11.20;99.90;;;;;;6632234;89;20193;-76
2021/04/29 12:17:17;;;;;;;9.85;6.05;;;13.70;99.90;;;;;;6633220;89;20209;-77
2021/04/29 12:27:23;;;;;;;9.77;5.30;;;14.20;99.90;;;;;;6633897;89;20304;-77
2021/04/29 12:37:23;;;;;;;6.47;3.90;;;13.20;99.90;;;;;;6619727;89;20285;-76
2021/04/29 12:47:34;;;;;;;8.57;4.90;;;12.30;99.90;;;;;;6619929;89;20198;-77
2021/04/29 12:57:35;;;;;;;10.65;5.80;;;12.50;99.90;;;;;;6620152;89;20705;-77
2021/04/29 13:07:36;;;;;;;9.00;5.97;;;12.00;99.90;;;;;;6619386;89;20283;-76
2021/04/29 13:17:40;;;;;;;12.73;6.97;;;11.40;99.90;;;;;;6630228;89;21029;-76
2021/04/29 13:27:46;;;;;;;7.68;4.87;;;11.80;99.90;;;;;;6631559;89;20385;-76
2021/04/29 13:37:47;;;;;;;9.73;4.10;;;12.30;99.90;;;;;;6631825;89;20331;-75
2021/04/29 13:47:47;;;;;;;6.83;5.20;;;12.00;99.90;;;;;;6632137;88;20188;-76
2021/04/29 13:57:48;;;;;;;8.52;6.05;;;12.00;99.90;;;;;;6631414;89;20541;-76
2021/04/29 14:07:48;;;;;;;7.80;5.53;;;11.20;99.90;;;;;;6635961;89;20189;-76
2021/04/29 14:17:49;;;;;;;8.15;5.70;;;10.40;99.90;;;;;;6632597;88;20226;-76
2021/04/29 14:27:50;;;;;;;7.90;4.95;;;10.20;99.90;;;;;;6633784;89;20202;-76
2021/04/29 14:37:51;;;;;;;5.85;4.45;;;10.10;99.90;;;;;;6636875;88;20244;-76
2021/04/29 14:47:51;;;;;;;5.25;4.20;;;10.00;99.90;;;;;;6630386;89;20263;-76
2021/04/29 14:57:52;;;;;;;8.07;4.70;;;9.70;99.90;;;;;;6633176;89;20208;-76
2021/04/29 15:07:54;;;;;;;7.90;3.85;;;9.90;99.90;;;;;;6630670;89;20774;-76
2021/04/29 15:17:54;;;;;;;8.88;4.03;;;9.70;99.90;;;;;;6630954;89;20185;-76
2021/04/29 15:27:56;;;;;;;5.45;3.37;;;9.80;99.90;;;;;;6634017;89;20200;-77
2021/04/29 15:37:57;;;;;;;4.90;3.33;;;9.90;99.90;;;;;;6633724;89;20196;-77
2021/04/29 15:47:57;;;;;;;4.53;3.03;;;10.00;99.90;;;;;;6632581;89;20200;-75
2021/04/29 15:57:58;;;;;;;4.50;3.30;;;10.00;99.90;;;;;;6634478;89;20271;-75
2021/04/29 16:07:58;;;;;;;8.02;4.32;;;9.90;99.90;;;;;;6638415;89;20520;-76
2021/04/29 16:17:59;;;;;;;6.50;4.07;;;10.10;99.90;;;;;;6638588;89;20218;-75
2021/04/29 16:28:00;;;;;;;6.00;4.32;;;10.10;99.90;;;;;;6622934;89;20189;-76
2021/04/29 16:38:00;;;;;;;6.57;4.55;;;9.80;99.90;;;;;;6634384;88;20220;-77
2021/04/29 16:48:01;;;;;;;6.40;4.57;;;9.70;99.90;;;;;;6629431;89;20204;-77
2021/04/29 16:58:04;;;;;;;8.27;5.32;;;9.70;99.90;;;;;;6631337;88;20276;-75
2021/04/29 17:08:05;;;;;;;8.98;5.90;;;9.60;99.90;;;;;;6631477;88;20309;-76
2021/04/29 17:18:06;;;;;;;11.25;7.40;;;9.40;99.90;;;;;;6626343;88;20316;-77
2021/04/29 17:28:07;;;;;;;11.63;7.50;;;9.30;99.90;;;;;;6629632;89;20233;-77
2021/04/29 17:38:08;;;;;;;12.20;7.40;;;9.20;99.90;;;;;;6630391;88;20200;-76
2021/04/29 17:48:08;;;;;;;11.85;7.05;;;9.20;99.90;;;;;;6632494;88;20196;-76
2021/04/29 17:58:09;;;;;;;11.23;7.07;;;9.00;99.90;;;;;;6619099;88;20325;-75
2021/04/29 18:08:12;;;;;;;11.50;7.40;;;9.10;99.90;;;;;;6635344;88;20184;-76
2021/04/29 18:18:13;;;;;;;15.90;8.43;;;9.10;99.90;;;;;;6635578;89;20233;-76
2021/04/29 18:28:13;;;;;;;14.05;9.00;;;9.10;99.90;;;;;;6625865;88;20244;-76
2021/04/29 18:38:14;;;;;;;14.50;8.93;;;9.10;99.90;;;;;;6622064;89;20834;-76
2021/04/29 18:48:22;;;;;;;13.18;8.88;;;9.00;99.90;;;;;;6628890;88;20525;-75
2021/04/29 18:58:24;;;;;;;14.93;9.27;;;9.00;99.90;;;;;;6629631;88;20248;-75
2021/04/29 19:08:24;;;;;;;17.37;8.77;;;9.00;99.90;;;;;;6629729;88;20661;-75
2021/04/29 19:18:28;;;;;;;13.48;8.35;;;8.90;99.90;;;;;;6633165;88;20207;-75
2021/04/29 19:28:28;;;;;;;14.95;8.55;;;8.90;99.90;;;;;;6633102;89;20267;-74
2021/04/29 19:38:29;;;;;;;16.08;9.43;;;8.70;99.90;;;;;;6632302;89;20188;-75
2021/04/29 19:48:30;;;;;;;15.48;8.70;;;8.60;99.90;;;;;;6632661;89;20225;-75
2021/04/29 19:58:31;;;;;;;15.57;9.55;;;8.60;99.90;;;;;;6615937;89;20193;-74
2021/04/29 20:08:31;;;;;;;13.50;9.10;;;8.30;99.90;;;;;;6624557;88;20328;-75
2021/04/29 20:18:32;;;;;;;13.93;9.13;;;8.20;99.90;;;;;;6661838;88;20674;-77
2021/04/29 20:28:32;;;;;;;15.60;8.82;;;8.00;99.90;;;;;;6636038;88;20558;-74
2021/04/29 20:38:33;;;;;;;12.60;8.25;;;7.70;99.90;;;;;;6635348;89;20629;-75
2021/04/29 20:48:34;;;;;;;12.95;7.95;;;7.60;99.90;;;;;;6643433;88;20184;-75
2021/04/29 20:58:34;;;;;;;12.57;8.60;;;7.50;99.90;;;;;;6618826;89;20181;-75
2021/04/29 21:08:35;;;;;;;14.30;8.20;;;7.50;99.90;;;;;;6620407;89;20197;-75
2021/04/29 21:18:36;;;;;;;17.62;8.20;;;7.40;99.90;;;;;;6619924;89;20326;-75
2021/04/29 21:28:38;;;;;;;13.73;8.73;;;7.20;99.90;;;;;;6620464;89;20625;-74
2021/04/29 21:38:38;;;;;;;13.88;8.93;;;7.10;99.90;;;;;;6638166;88;20197;-75
2021/04/29 21:48:39;;;;;;;14.93;8.48;;;7.10;99.90;;;;;;6622777;89;20192;-75
2021/04/29 21:58:40;;;;;;;13.68;8.55;;;7.00;99.90;;;;;;6619362;89;20505;-75
2021/04/29 22:08:45;;;;;;;15.02;8.70;;;6.90;99.90;;;;;;6629449;89;20307;-75
2021/04/29 22:18:47;;;;;;;13.20;9.27;;;6.80;99.90;;;;;;6637298;89;20954;-76
2021/04/29 22:28:47;;;;;;;15.00;9.07;;;6.70;99.90;;;;;;6637346;89;20683;-75
2021/04/29 22:38:48;;;;;;;20.20;8.88;;;6.50;99.90;;;;;;6640133;88;20212;-75
2021/04/29 22:48:49;;;;;;;17.27;8.98;;;6.60;99.90;;;;;;6639486;89;20207;-75
2021/04/29 22:58:49;;;;;;;18.52;9.45;;;6.40;99.90;;;;;;6640906;89;20197;-77
2021/04/29 23:08:50;;;;;;;14.32;9.25;;;6.20;99.90;;;;;;6635567;89;20222;-75
2021/04/29 23:18:50;;;;;;;18.27;9.45;;;6.10;99.90;;;;;;6635694;89;20234;-75
2021/04/29 23:28:51;;;;;;;15.98;9.43;;;6.10;99.90;;;;;;6635972;89;20721;-75
2021/04/29 23:38:52;;;;;;;13.93;9.50;;;5.90;99.90;;;;;;6635688;89;20204;-74
2021/04/29 23:48:52;;;;;;;16.05;9.38;;;5.70;99.90;;;;;;6640099;89;20861;-76
2021/04/29 23:58:53;;;;;;;14.15;8.48;;;5.70;99.90;;;;;;6639847;89;20377;-76
